Time;durP1;ratioP1;P1;durP2;ratioP2;P2;SDS_P1;SDS_P2;PMS_P1;PMS_P2;Temp;Humidity;BMP_temperature;BMP_pressure;BME280_temperature;BME280_humidity;BME280_pressure;Samples;Min_cycle;Max_cycle;Signal;HPM_P1;HPM_P2
2022/10/05 00:00:44;;;;;;;6.53;5.40;;;;;;;4.15;100.00;93608.34;2080792;28;20112;-78
2022/10/05 00:01:46;;;;;;;5.78;4.85;;;;;;;4.10;100.00;93603.38;2081402;28;20017;-79
2022/10/05 00:02:49;;;;;;;6.07;5.47;;;;;;;4.12;100.00;93601.88;2080253;28;20083;-78
2022/10/05 00:03:57;;;;;;;6.40;5.10;;;;;;;4.11;100.00;93603.00;2068674;28;20496;-78
2022/10/05 00:04:58;;;;;;;11.20;5.97;;;;;;;4.17;100.00;93600.78;2079334;28;20029;-78
2022/10/05 00:05:59;;;;;;;6.82;4.88;;;;;;;4.14;100.00;93598.88;2089469;28;20166;-78
2022/10/05 00:07:16;;;;;;;9.27;5.10;;;;;;;4.11;100.00;93599.59;2088862;28;20033;-78
2022/10/05 00:08:21;;;;;;;5.18;4.57;;;;;;;4.18;100.00;93597.81;2088312;28;20033;-78
2022/10/05 00:09:22;;;;;;;7.57;4.82;;;;;;;4.20;100.00;93598.19;2086761;28;20025;-79
2022/10/05 00:10:23;;;;;;;5.32;4.82;;;;;;;4.17;100.00;93596.28;2088365;28;20586;-78
2022/10/05 00:11:24;;;;;;;7.40;5.00;;;;;;;4.18;100.00;93595.16;2080557;28;20036;-79
2022/10/05 00:12:28;;;;;;;9.55;5.88;;;;;;;4.13;100.00;93594.72;2072692;28;20207;-79
2022/10/05 00:13:30;;;;;;;7.07;5.18;;;;;;;4.19;100.00;93590.63;2077662;28;20026;-78
2022/10/05 00:14:34;;;;;;;12.55;5.90;;;;;;;4.12;100.00;93593.94;2087653;28;20020;-79
2022/10/05 00:15:36;;;;;;;9.32;5.43;;;;;;;4.17;100.00;93598.16;2080018;28;20041;-80
2022/10/05 00:16:37;;;;;;;7.47;5.70;;;;;;;4.19;100.00;93596.66;2072397;28;20523;-79
2022/10/05 00:17:41;;;;;;;9.00;4.95;;;;;;;4.22;100.00;93593.31;2080879;28;20037;-80
2022/10/05 00:18:47;;;;;;;5.70;5.07;;;;;;;4.18;100.00;93589.09;2087118;28;20033;-79
2022/10/05 00:19:51;;;;;;;9.57;5.28;;;;;;;4.15;100.00;93590.56;2087209;28;20560;-79
2022/10/05 00:20:52;;;;;;;10.48;5.10;;;;;;;4.18;100.00;93595.16;2105225;28;20028;-79
2022/10/05 00:22:08;;;;;;;10.18;4.40;;;;;;;4.24;100.00;93590.28;2088496;28;20029;-79
2022/10/05 00:23:29;;;;;;;6.68;5.05;;;;;;;4.32;100.00;93593.78;2080227;28;20116;-80
2022/10/05 00:24:30;;;;;;;5.40;4.57;;;;;;;4.26;100.00;93590.69;2081246;28;20025;-79
2022/10/05 00:25:31;;;;;;;7.75;4.80;;;;;;;4.15;100.00;93593.22;2081555;28;20025;-79
2022/10/05 00:26:32;;;;;;;4.97;4.25;;;;;;;4.18;100.00;93595.16;2084257;28;20033;-79
2022/10/05 00:27:36;;;;;;;6.63;5.45;;;;;;;4.17;100.00;93590.22;2092548;28;20025;-78
2022/10/05 00:28:39;;;;;;;8.18;4.57;;;;;;;4.23;100.00;93594.06;2089695;28;20471;-80
2022/10/05 00:29:40;;;;;;;5.00;4.53;;;;;;;4.25;100.00;93599.75;2081250;28;20032;-78
2022/10/05 00:30:42;;;;;;;8.15;5.22;;;;;;;4.23;100.00;93591.41;2078915;28;20029;-78
2022/10/05 00:31:43;;;;;;;7.55;4.82;;;;;;;4.22;100.00;93595.19;2074862;28;20113;-77
2022/10/05 00:32:45;;;;;;;7.22;5.03;;;;;;;4.17;100.00;93598.16;2088277;28;20243;-77
2022/10/05 00:33:47;;;;;;;11.77;5.18;;;;;;;4.18;100.00;93594.41;2088430;28;20120;-77
2022/10/05 00:34:48;;;;;;;5.13;4.50;;;;;;;4.10;100.00;93592.81;2088693;28;20033;-78
2022/10/05 00:35:49;;;;;;;8.77;4.68;;;;;;;4.02;100.00;93589.31;2087422;28;20032;-78
2022/10/05 00:36:50;;;;;;;5.60;5.00;;;;;;;4.06;100.00;93584.81;2104287;28;20530;-78
2022/10/05 00:37:54;;;;;;;10.18;4.65;;;;;;;4.04;100.00;93590.47;2088080;28;20033;-77
2022/10/05 00:38:55;;;;;;;8.38;4.68;;;;;;;4.04;100.00;93587.06;2088740;28;20040;-76
2022/10/05 00:39:56;;;;;;;10.80;4.78;;;;;;;4.10;100.00;93582.97;2104683;28;20031;-76
2022/10/05 00:41:20;;;;;;;6.28;4.70;;;;;;;4.06;100.00;93576.88;2084553;28;20167;-76
2022/10/05 00:42:49;;;;;;;10.43;5.20;;;;;;;4.12;100.00;93582.59;2063277;28;20089;-76
2022/10/05 00:44:33;;;;;;;7.53;4.78;;;;;;;4.03;100.00;93577.59;2088183;28;20120;-77
2022/10/05 00:45:47;;;;;;;6.10;4.40;;;;;;;4.08;100.00;93574.63;2076994;28;20021;-76
2022/10/05 00:46:53;;;;;;;7.32;4.40;;;;;;;4.11;100.00;93578.44;2081352;28;20021;-76
2022/10/05 00:47:54;;;;;;;7.50;4.03;;;;;;;4.12;100.00;93579.97;2088393;28;20029;-75
2022/10/05 00:49:06;;;;;;;7.88;4.10;;;;;;;4.18;100.00;93574.00;2085483;28;20383;-76
2022/10/05 00:50:33;;;;;;;7.90;4.07;;;;;;;4.21;100.00;93572.47;2086526;28;20486;-75
2022/10/05 00:51:36;;;;;;;3.92;3.58;;;;;;;4.18;100.00;93578.53;2092253;28;20531;-76
2022/10/05 00:53:04;;;;;;;7.15;3.88;;;;;;;4.12;100.00;93572.03;2104210;28;20521;-76
2022/10/05 00:54:23;;;;;;;4.20;3.65;;;;;;;4.15;100.00;93564.13;2085548;28;20094;-76
2022/10/05 00:55:27;;;;;;;5.25;3.58;;;;;;;4.10;100.00;93566.34;2087982;28;20574;-77
2022/10/05 00:56:28;;;;;;;6.60;3.88;;;;;;;4.13;100.00;93560.34;2083866;28;20041;-77
2022/10/05 00:57:46;;;;;;;4.45;4.03;;;;;;;4.11;100.00;93567.84;2087881;28;20525;-76
2022/10/05 00:59:17;;;;;;;5.43;3.70;;;;;;;4.26;100.00;93575.59;2088606;28;20037;-76
2022/10/05 01:00:25;;;;;;;6.05;4.00;;;;;;;4.13;100.00;93561.09;2087284;28;20025;-76
2022/10/05 01:02:01;;;;;;;5.97;4.13;;;;;;;4.11;100.00;93571.25;2081314;28;20021;-76
2022/10/05 01:03:14;;;;;;;5.75;3.78;;;;;;;4.12;100.00;93567.50;2085852;28;20029;-76
2022/10/05 01:04:40;;;;;;;4.80;3.95;;;;;;;4.07;100.00;93567.06;2088979;28;20040;-75
2022/10/05 01:06:13;;;;;;;3.90;3.58;;;;;;;4.25;100.00;93563.47;2087025;28;20459;-75
2022/10/05 01:07:34;;;;;;;6.72;3.83;;;;;;;4.25;100.00;93568.00;2087140;28;20041;-75
2022/10/05 01:08:47;;;;;;;8.48;4.03;;;;;;;4.12;100.00;93564.09;2085291;28;20521;-75
2022/10/05 01:10:11;;;;;;;4.93;4.10;;;;;;;4.11;100.00;93565.97;2087711;28;20047;-76
2022/10/05 01:11:30;;;;;;;5.82;4.00;;;;;;;4.02;100.00;93560.97;2086761;28;20394;-77
2022/10/05 01:12:50;;;;;;;5.13;3.85;;;;;;;4.06;100.00;93562.91;2085501;28;20383;-76
2022/10/05 01:14:33;;;;;;;6.27;4.07;;;;;;;4.09;100.00;93554.25;2089099;28;20927;-76
2022/10/05 01:15:53;;;;;;;9.10;4.10;;;;;;;3.97;100.00;93556.00;2086424;28;20481;-75
2022/10/05 01:17:26;;;;;;;8.27;4.10;;;;;;;3.99;100.00;93553.00;2095840;28;20024;-76
2022/10/05 01:18:37;;;;;;;6.45;4.15;;;;;;;4.01;100.00;93554.16;2092839;28;20431;-75
2022/10/05 01:20:18;;;;;;;10.10;3.97;;;;;;;3.97;100.00;93548.06;2102915;28;20024;-75
2022/10/05 01:21:18;;;;;;;;;;;;;;;3.93;100.00;93551.81;2106211;28;20355;-75
2022/10/05 01:22:43;;;;;;;4.53;3.80;;;;;;;4.01;100.00;93553.41;2103965;28;19919;-75
2022/10/05 01:24:19;;;;;;;4.00;3.60;;;;;;;3.99;100.00;93553.75;2111558;28;20046;-75
2022/10/05 01:25:51;;;;;;;6.18;4.20;;;;;;;4.00;100.00;93557.19;2092771;28;20032;-76
2022/10/05 01:27:07;;;;;;;4.63;3.85;;;;;;;3.97;100.00;93550.72;2104948;28;20086;-77
2022/10/05 01:28:17;;;;;;;4.57;4.03;;;;;;;4.11;100.00;93552.00;2102444;28;20133;-76
2022/10/05 01:29:23;;;;;;;5.70;4.25;;;;;;;4.08;100.00;93552.72;2104947;28;20032;-77
2022/10/05 01:30:24;;;;;;;5.15;3.55;;;;;;;4.03;100.00;93543.22;2105055;28;20047;-75
2022/10/05 01:31:36;;;;;;;4.85;3.78;;;;;;;3.94;100.00;93551.44;2096288;28;20053;-77
2022/10/05 01:32:53;;;;;;;5.65;4.22;;;;;;;3.91;100.00;93551.44;2095105;28;20025;-76
2022/10/05 01:34:05;;;;;;;5.35;4.18;;;;;;;3.86;100.00;93552.50;2096191;28;20025;-76
2022/10/05 01:35:26;;;;;;;5.05;4.10;;;;;;;3.91;100.00;93551.44;2095539;28;20065;-76
2022/10/05 01:36:29;;;;;;;14.10;4.20;;;;;;;3.92;100.00;93550.31;2091507;28;20029;-76
2022/10/05 01:37:36;;;;;;;4.10;3.70;;;;;;;4.07;100.00;93553.84;2097379;28;20033;-77
2022/10/05 01:38:39;;;;;;;6.45;3.78;;;;;;;4.04;100.00;93547.41;2104915;28;20023;-76
2022/10/05 01:39:56;;;;;;;6.20;3.88;;;;;;;4.06;100.00;93557.63;2096161;28;20245;-76
2022/10/05 01:41:11;;;;;;;6.75;3.78;;;;;;;3.97;100.00;93557.91;2094655;28;20028;-76
2022/10/05 01:42:24;;;;;;;5.80;4.18;;;;;;;3.93;100.00;93552.56;2104946;28;20527;-76
2022/10/05 01:43:57;;;;;;;4.30;3.90;;;;;;;4.21;100.00;93549.44;2104311;28;20039;-77
2022/10/05 01:45:27;;;;;;;5.47;3.65;;;;;;;4.12;100.00;93553.50;2108886;28;20035;-76
2022/10/05 01:46:43;;;;;;;5.10;4.20;;;;;;;4.11;100.00;93558.03;2096467;28;20033;-76
2022/10/05 01:47:48;;;;;;;3.88;3.45;;;;;;;4.18;100.00;93558.13;2092050;28;20028;-76
2022/10/05 01:49:04;;;;;;;10.57;4.20;;;;;;;4.23;100.00;93554.38;2094356;28;20032;-76
2022/10/05 01:50:39;;;;;;;8.40;3.95;;;;;;;4.10;100.00;93551.22;2102118;28;20123;-76
2022/10/05 01:52:24;;;;;;;5.25;3.72;;;;;;;3.88;100.00;93555.53;2103114;28;20020;-77
2022/10/05 01:53:46;;;;;;;3.70;3.20;;;;;;;3.68;100.00;93549.66;2096180;28;20043;-76
2022/10/05 01:54:53;;;;;;;6.30;3.72;;;;;;;3.70;100.00;93554.59;2088536;28;20054;-76
2022/10/05 01:56:13;;;;;;;6.88;3.78;;;;;;;3.72;100.00;93562.91;2096570;28;20142;-76
2022/10/05 01:57:45;;;;;;;5.68;3.83;;;;;;;3.59;100.00;93546.53;2105361;28;20086;-76
2022/10/05 01:59:23;;;;;;;4.63;3.17;;;;;;;3.57;100.00;93554.06;2094652;28;20136;-76
2022/10/05 02:00:24;;;;;;;5.57;3.63;;;;;;;3.50;100.00;93553.97;2101269;28;20024;-76
2022/10/05 02:01:38;;;;;;;6.15;3.75;;;;;;;3.49;100.00;93545.28;2104553;28;20103;-75
2022/10/05 02:03:03;;;;;;;9.32;3.80;;;;;;;3.47;100.00;93544.91;2102660;28;20462;-76
2022/10/05 02:04:22;;;;;;;6.25;3.95;;;;;;;3.41;100.00;93535.75;2062817;28;20153;-76
2022/10/05 02:05:31;;;;;;;5.95;3.60;;;;;;;3.37;100.00;93534.94;2097536;28;20054;-75
2022/10/05 02:06:39;;;;;;;7.07;3.72;;;;;;;3.38;100.00;93536.50;2109360;28;20370;-75
2022/10/05 02:08:08;;;;;;;3.88;3.45;;;;;;;3.33;100.00;93536.03;2102614;28;20114;-75
2022/10/05 02:09:18;;;;;;;4.45;4.03;;;;;;;3.35;100.00;93531.16;2097216;28;20035;-76
2022/10/05 02:10:41;;;;;;;3.97;3.58;;;;;;;3.34;100.00;93535.69;2104123;28;20032;-75
2022/10/05 02:11:48;;;;;;;6.45;3.60;;;;;;;3.27;100.00;93530.31;2094006;28;20024;-76
2022/10/05 02:12:57;;;;;;;8.93;3.83;;;;;;;3.32;100.00;93529.97;2088772;28;20067;-75
2022/10/05 02:14:06;;;;;;;7.13;3.78;;;;;;;3.33;100.00;93525.47;2094424;28;20032;-75
2022/10/05 02:15:18;;;;;;;6.45;3.90;;;;;;;3.31;100.00;93528.47;2105859;28;20024;-75
2022/10/05 02:16:30;;;;;;;5.25;3.53;;;;;;;3.35;100.00;93529.28;2104844;28;20105;-76
2022/10/05 02:17:36;;;;;;;3.92;3.53;;;;;;;3.46;100.00;93526.75;2101903;28;20402;-76
2022/10/05 02:18:51;;;;;;;7.53;3.70;;;;;;;3.43;100.00;93533.53;2096271;28;20028;-76
2022/10/05 02:20:04;;;;;;;7.10;3.22;;;;;;;3.39;100.00;93524.78;2093858;28;20466;-77
2022/10/05 02:21:07;;;;;;;4.20;3.42;;;;;;;3.31;100.00;93525.06;2100736;28;20032;-77
2022/10/05 02:22:18;;;;;;;4.13;3.58;;;;;;;3.32;100.00;93519.41;2104962;28;20040;-76
2022/10/05 02:23:24;;;;;;;4.63;3.83;;;;;;;3.28;100.00;93524.66;2096057;28;20674;-76
2022/10/05 02:24:34;;;;;;;4.40;3.47;;;;;;;3.25;100.00;93522.00;2089352;28;20095;-76
2022/10/05 02:25:38;;;;;;;4.80;3.65;;;;;;;3.21;100.00;93523.81;2076551;28;20022;-76
2022/10/05 02:26:40;;;;;;;6.97;3.58;;;;;;;3.17;100.00;93521.13;2081573;28;20044;-76
2022/10/05 02:28:26;;;;;;;6.43;2.97;;;;;;;3.23;100.00;93521.56;2104711;28;20082;-77
2022/10/05 02:29:31;;;;;;;6.22;3.20;;;;;;;3.21;100.00;93524.59;2085220;28;20059;-78
2022/10/05 02:30:42;;;;;;;4.80;3.33;;;;;;;3.23;100.00;93519.69;2096034;28;20024;-77
2022/10/05 02:32:01;;;;;;;;;;;;;;;3.18;100.00;93521.88;2097365;28;20044;-76
2022/10/05 02:33:17;;;;;;;7.07;3.22;;;;;;;3.18;100.00;93530.56;2092896;28;19912;-78
2022/10/05 02:34:25;;;;;;;8.75;3.67;;;;;;;3.18;100.00;93520.00;2089543;28;20041;-78
2022/10/05 02:35:26;;;;;;;5.78;3.80;;;;;;;3.02;100.00;93524.69;2088653;28;20131;-77
2022/10/05 02:36:35;;;;;;;6.07;3.40;;;;;;;2.99;100.00;93528.06;2096242;28;20083;-77
2022/10/05 02:37:49;;;;;;;8.88;3.85;;;;;;;3.06;100.00;93524.75;2102526;28;20029;-76
2022/10/05 02:39:11;;;;;;;6.93;3.70;;;;;;;2.93;100.00;93530.22;2087904;28;20078;-77
2022/10/05 02:40:45;;;;;;;7.00;3.50;;;;;;;2.85;100.00;93525.97;2092626;28;20024;-80
2022/10/05 02:42:13;;;;;;;10.77;3.65;;;;;;;2.90;100.00;93522.28;2087211;28;20032;-80
2022/10/05 02:44:15;;;;;;;4.82;3.22;;;;;;;3.05;100.00;93517.94;2094044;28;20058;-80
2022/10/05 02:45:49;;;;;;;4.95;3.05;;;;;;;3.08;100.00;93525.16;2077460;28;20040;-79
2022/10/05 02:47:04;;;;;;;5.97;3.05;;;;;;;3.12;100.00;93515.41;2071010;28;20061;-78
2022/10/05 02:48:07;;;;;;;4.65;3.33;;;;;;;3.13;100.00;93516.94;2068093;28;20543;-79
2022/10/05 02:49:36;;;;;;;6.07;3.20;;;;;;;3.01;100.00;93516.00;2068291;28;20029;-79
2022/10/05 02:50:50;;;;;;;4.85;3.28;;;;;;;3.11;100.00;93513.88;2071914;28;20040;-78
2022/10/05 02:52:07;;;;;;;6.13;3.08;;;;;;;3.02;100.00;93520.16;2100969;28;20021;-78
2022/10/05 02:53:21;;;;;;;4.88;3.50;;;;;;;3.07;100.00;93519.09;2104864;28;20187;-78
2022/10/05 02:54:43;;;;;;;5.10;3.20;;;;;;;3.10;100.00;93515.75;2091730;28;20112;-78
2022/10/05 02:55:57;;;;;;;7.63;3.67;;;;;;;3.13;100.00;93517.69;2099442;28;20016;-77
2022/10/05 02:57:06;;;;;;;7.88;3.80;;;;;;;3.03;100.00;93519.06;2090508;28;20025;-77
2022/10/05 02:58:10;;;;;;;7.15;3.50;;;;;;;2.88;100.00;93522.63;2090284;28;20120;-77
2022/10/05 02:59:30;;;;;;;4.57;3.00;;;;;;;2.81;100.00;93521.75;2104271;28;20064;-77
2022/10/05 03:00:36;;;;;;;5.75;3.25;;;;;;;2.79;100.00;93519.50;2084232;28;20455;-77
2022/10/05 03:01:51;;;;;;;8.43;3.60;;;;;;;2.73;100.00;93524.31;2088885;28;20507;-77
2022/10/05 03:02:52;;;;;;;5.75;3.40;;;;;;;2.78;100.00;93518.72;2095678;28;20029;-76
2022/10/05 03:04:25;;;;;;;5.78;3.30;;;;;;;2.87;100.00;93517.72;2095166;28;21711;-77
2022/10/05 03:06:09;;;;;;;7.30;3.90;;;;;;;2.77;100.00;93521.72;2082993;28;20072;-78
2022/10/05 03:07:30;;;;;;;9.20;3.25;;;;;;;2.77;100.00;93516.44;2079408;28;20036;-77
2022/10/05 03:08:40;;;;;;;5.90;3.38;;;;;;;2.82;100.00;93510.88;2092174;28;20021;-77
2022/10/05 03:09:51;;;;;;;6.95;3.47;;;;;;;2.83;100.00;93514.25;2088042;28;20017;-77
2022/10/05 03:11:37;;;;;;;3.60;3.30;;;;;;;2.85;100.00;93517.28;2095955;28;20032;-77
2022/10/05 03:12:38;;;;;;;6.20;3.25;;;;;;;2.87;100.00;93515.81;2073262;28;20037;-76
2022/10/05 03:14:07;;;;;;;6.45;3.75;;;;;;;2.80;100.00;93515.72;2104383;28;20027;-76
2022/10/05 03:15:14;;;;;;;5.07;3.00;;;;;;;2.73;100.00;93510.38;2088647;28;20033;-76
2022/10/05 03:16:52;;;;;;;6.65;3.55;;;;;;;2.73;100.00;93510.38;2096482;28;20025;-76
2022/10/05 03:18:06;;;;;;;5.97;2.90;;;;;;;2.48;100.00;93513.38;2104261;28;20059;-76
2022/10/05 03:19:18;;;;;;;4.45;2.78;;;;;;;2.62;100.00;93514.72;2103901;28;20108;-76
2022/10/05 03:20:42;;;;;;;8.68;3.13;;;;;;;2.74;100.00;93520.56;2105287;28;20500;-76
2022/10/05 03:22:04;;;;;;;4.82;3.00;;;;;;;2.65;100.00;93522.69;2104150;28;20032;-76
2022/10/05 03:23:13;;;;;;;5.80;3.38;;;;;;;2.71;100.00;93518.63;2103365;28;20035;-75
2022/10/05 03:24:33;;;;;;;7.57;3.65;;;;;;;2.72;100.00;93516.72;2098579;28;20032;-75
2022/10/05 03:25:51;;;;;;;4.60;3.30;;;;;;;2.64;100.00;93520.41;2100306;28;20086;-75
2022/10/05 03:27:21;;;;;;;4.25;3.20;;;;;;;2.57;100.00;93518.41;2096887;28;20033;-77
2022/10/05 03:28:34;;;;;;;3.67;3.10;;;;;;;2.52;100.00;93519.47;2093129;28;20043;-77
2022/10/05 03:30:00;;;;;;;7.88;3.53;;;;;;;2.56;100.00;93519.53;2088121;28;20047;-75
2022/10/05 03:31:09;;;;;;;5.15;3.35;;;;;;;2.51;100.00;93507.41;2100796;28;20355;-75
2022/10/05 03:32:18;;;;;;;5.38;3.60;;;;;;;2.49;100.00;93508.88;2096743;28;20471;-75
2022/10/05 03:33:31;;;;;;;5.05;3.65;;;;;;;2.43;100.00;93515.56;2098573;28;20044;-75
2022/10/05 03:34:44;;;;;;;9.95;3.47;;;;;;;2.40;100.00;93514.38;2094024;28;20629;-75
2022/10/05 03:36:01;;;;;;;9.55;3.33;;;;;;;2.40;100.00;93521.53;2094765;28;20158;-75
2022/10/05 03:37:13;;;;;;;8.13;3.08;;;;;;;2.46;100.00;93525.44;2103147;28;20470;-76
2022/10/05 03:38:45;;;;;;;7.18;3.47;;;;;;;2.45;100.00;93521.25;2102464;28;20027;-75
2022/10/05 03:40:08;;;;;;;5.97;2.90;;;;;;;2.48;100.00;93521.31;2103294;28;20355;-76
2022/10/05 03:41:36;;;;;;;10.85;3.75;;;;;;;2.48;100.00;93528.47;2102262;28;20074;-75
2022/10/05 03:43:15;;;;;;;11.45;4.00;;;;;;;2.55;100.00;93533.06;2093237;28;20482;-75
2022/10/05 03:44:48;;;;;;;14.38;4.10;;;;;;;2.62;100.00;93533.19;2102460;28;20016;-77
2022/10/05 03:45:49;;;;;;;10.30;3.63;;;;;;;2.64;100.00;93529.09;2106026;28;20032;-76
2022/10/05 03:46:59;;;;;;;9.05;3.60;;;;;;;2.63;100.00;93529.44;2091183;28;20065;-76
2022/10/05 03:48:13;;;;;;;10.02;3.63;;;;;;;2.63;100.00;93524.16;2086655;28;20137;-75
2022/10/05 03:49:49;;;;;;;7.97;3.80;;;;;;;2.59;100.00;93533.88;2098069;28;20352;-75
2022/10/05 03:51:05;;;;;;;8.35;3.88;;;;;;;2.69;100.00;93534.06;2079473;28;20025;-75
2022/10/05 03:52:14;;;;;;;6.30;3.97;;;;;;;2.68;100.00;93529.16;2110451;28;20031;-75
2022/10/05 03:53:27;;;;;;;5.65;4.00;;;;;;;2.75;100.00;93524.72;2112876;28;20103;-76
2022/10/05 03:54:42;;;;;;;7.93;3.80;;;;;;;2.81;100.00;93522.53;2101976;28;20120;-74
2022/10/05 03:55:46;;;;;;;9.25;3.95;;;;;;;2.74;100.00;93527.72;2105878;28;20035;-75
2022/10/05 03:57:06;;;;;;;9.57;3.83;;;;;;;2.80;100.00;93518.38;2104616;28;20040;-76
2022/10/05 03:58:25;;;;;;;9.00;3.72;;;;;;;2.90;100.00;93519.66;2106204;28;20474;-74
2022/10/05 03:59:32;;;;;;;5.72;3.95;;;;;;;3.02;100.00;93522.06;2106092;28;20039;-76
2022/10/05 04:00:39;;;;;;;5.75;3.65;;;;;;;3.01;100.00;93507.34;2102741;28;20084;-76
2022/10/05 04:02:01;;;;;;;4.38;3.97;;;;;;;3.12;100.00;93516.16;2088659;28;20025;-75
2022/10/05 04:03:23;;;;;;;7.07;3.58;;;;;;;3.18;100.00;93506.03;2086007;28;20490;-76
2022/10/05 04:04:35;;;;;;;3.58;3.10;;;;;;;3.15;100.00;93514.66;2100262;28;20127;-75
2022/10/05 04:05:59;;;;;;;5.43;3.60;;;;;;;3.18;100.00;93508.69;2103244;28;20051;-76
2022/10/05 04:07:01;;;;;;;6.90;3.40;;;;;;;3.19;100.00;93504.91;2093060;28;20020;-77
2022/10/05 04:08:10;;;;;;;5.57;3.63;;;;;;;3.19;100.00;93510.97;2093944;28;20033;-74
2022/10/05 04:09:22;;;;;;;5.78;3.42;;;;;;;3.13;100.00;93501.06;2105274;28;20044;-74
2022/10/05 04:10:34;;;;;;;3.53;3.10;;;;;;;3.10;100.00;93496.50;2105686;28;20024;-74
2022/10/05 04:11:46;;;;;;;15.60;4.20;;;;;;;3.11;100.00;93505.94;2102937;28;20028;-74
2022/10/05 04:12:53;;;;;;;7.60;3.33;;;;;;;3.13;100.00;93498.44;2103349;28;20115;-74
2022/10/05 04:14:04;;;;;;;6.45;3.05;;;;;;;3.14;100.00;93510.50;2100879;28;20021;-74
2022/10/05 04:15:22;;;;;;;4.85;3.55;;;;;;;3.18;100.00;93498.13;2092427;28;20032;-74
2022/10/05 04:16:32;;;;;;;6.75;3.30;;;;;;;3.18;100.00;93498.13;2079648;28;20443;-75
2022/10/05 04:17:39;;;;;;;6.25;3.53;;;;;;;3.14;100.00;93492.03;2085930;28;20487;-74
2022/10/05 04:18:57;;;;;;;4.95;3.30;;;;;;;3.18;100.00;93492.84;2088941;28;20663;-74
2022/10/05 04:20:16;;;;;;;3.95;3.50;;;;;;;3.28;100.00;93495.59;2086306;28;20109;-75
2022/10/05 04:21:44;;;;;;;83.75;5.43;;;;;;;3.33;100.00;93488.47;2090266;28;20032;-74
2022/10/05 04:23:26;;;;;;;126.97;6.18;;;;;;;3.39;100.00;93487.81;2086982;28;20066;-75
2022/10/05 04:24:55;;;;;;;46.22;5.10;;;;;;;3.43;100.00;93485.97;2090286;28;20058;-76
2022/10/05 04:26:10;;;;;;;20.08;4.07;;;;;;;3.41;100.00;93492.72;2090567;28;20093;-75
2022/10/05 04:27:16;;;;;;;47.85;4.90;;;;;;;3.40;100.00;93496.50;2089691;28;20025;-75
2022/10/05 04:28:20;;;;;;;18.88;4.55;;;;;;;3.41;100.00;93490.06;2090845;28;20040;-75
2022/10/05 04:29:37;;;;;;;31.67;4.38;;;;;;;3.47;100.00;93486.78;2090648;28;20033;-75
2022/10/05 04:30:42;;;;;;;91.53;7.25;;;;;;;3.49;100.00;93486.41;2089782;28;20039;-75
2022/10/05 04:32:09;;;;;;;161.05;6.57;;;;;;;3.51;100.00;93481.50;2090467;28;20033;-75
2022/10/05 04:33:12;;;;;;;62.25;5.32;;;;;;;3.49;100.00;93486.41;2086822;28;20036;-80
2022/10/05 04:34:55;;;;;;;63.53;6.03;;;;;;;3.61;100.00;93475.59;2089081;28;20075;-79
2022/10/05 04:36:19;;;;;;;60.58;5.93;;;;;;;3.50;100.00;93472.81;2090363;28;20047;-79
2022/10/05 04:37:41;;;;;;;5.50;4.28;;;;;;;3.50;100.00;93477.34;2076816;28;20679;-77
2022/10/05 04:39:05;;;;;;;44.92;5.68;;;;;;;3.48;100.00;93476.97;2076231;28;20411;-78
2022/10/05 04:40:18;;;;;;;40.22;5.43;;;;;;;3.52;100.00;93478.50;2088486;28;20417;-79
2022/10/05 04:41:36;;;;;;;44.67;5.55;;;;;;;3.50;100.00;93480.75;2086839;28;20056;-78
2022/10/05 04:42:46;;;;;;;32.38;5.40;;;;;;;3.46;100.00;93477.28;2085114;28;20442;-78
2022/10/05 04:44:15;;;;;;;145.20;7.57;;;;;;;3.52;100.00;93480.41;2090618;28;20060;-78
2022/10/05 04:45:30;;;;;;;131.05;7.05;;;;;;;3.51;100.00;93481.50;2093422;28;20520;-80
2022/10/05 04:46:50;;;;;;;101.80;7.30;;;;;;;3.56;100.00;93472.47;2084398;28;20033;-78
2022/10/05 04:48:03;;;;;;;51.25;5.70;;;;;;;3.56;100.00;93480.41;2090069;28;20029;-76
2022/10/05 04:49:10;;;;;;;98.90;6.32;;;;;;;3.56;100.00;93480.41;2084555;28;20443;-77
2022/10/05 04:50:22;;;;;;;43.92;5.43;;;;;;;3.53;100.00;93487.94;2082566;28;20033;-77
2022/10/05 04:51:47;;;;;;;87.20;6.65;;;;;;;3.53;100.00;93484.56;2090431;28;20048;-79
2022/10/05 04:53:04;;;;;;;48.42;5.40;;;;;;;3.67;100.00;93478.66;2092123;28;20547;-77
2022/10/05 04:54:23;;;;;;;24.05;5.32;;;;;;;3.74;100.00;93487.41;2074905;28;20678;-78
2022/10/05 04:55:24;;;;;;;93.55;6.40;;;;;;;3.63;100.00;93491.81;2076468;28;20371;-77
2022/10/05 04:56:50;;;;;;;146.43;7.28;;;;;;;3.76;100.00;93487.81;2078816;28;20029;-78
2022/10/05 04:58:09;;;;;;;77.07;6.65;;;;;;;3.78;100.00;93490.09;2089720;28;20411;-77
2022/10/05 04:59:23;;;;;;;54.25;6.20;;;;;;;3.75;100.00;93494.22;2078799;28;20095;-76
2022/10/05 05:00:29;;;;;;;87.90;7.10;;;;;;;3.64;100.00;93487.28;2081819;28;20061;-78
2022/10/05 05:02:05;;;;;;;25.48;5.78;;;;;;;3.70;100.00;93491.16;2082565;28;20107;-77
2022/10/05 05:03:33;;;;;;;14.40;5.35;;;;;;;3.67;100.00;93497.16;2082478;28;20049;-84
2022/10/05 05:05:00;;;;;;;21.15;5.78;;;;;;;3.76;100.00;93489.69;2084650;28;20026;-82
2022/10/05 05:06:19;;;;;;;6.35;5.07;;;;;;;3.74;100.00;93495.34;2081519;28;20647;-83
2022/10/05 05:07:23;;;;;;;6.13;5.32;;;;;;;3.82;100.00;93492.75;2086661;28;20025;-84
2022/10/05 05:08:29;;;;;;;34.42;6.30;;;;;;;3.91;100.00;93493.25;2081732;28;20023;-83
2022/10/05 05:09:58;;;;;;;21.10;5.70;;;;;;;3.90;100.00;93489.06;2081577;28;20661;-82
2022/10/05 05:11:33;;;;;;;5.97;5.38;;;;;;;3.67;100.00;93486.59;2082694;28;20044;-79
2022/10/05 05:12:44;;;;;;;26.38;5.30;;;;;;;3.68;100.00;93491.50;2082368;28;20478;-78
2022/10/05 05:14:07;;;;;;;14.32;5.60;;;;;;;3.57;100.00;93500.47;2082943;28;20031;-78
2022/10/05 05:15:11;;;;;;;19.55;6.22;;;;;;;3.60;100.00;93494.44;2077680;28;20033;-77
2022/10/05 05:16:17;;;;;;;22.98;5.88;;;;;;;3.58;100.00;93488.75;2081306;28;20108;-81
2022/10/05 05:17:54;;;;;;;25.95;5.72;;;;;;;3.58;100.00;93494.78;2090037;28;20032;-79
2022/10/05 05:19:00;;;;;;;13.77;4.95;;;;;;;3.53;100.00;93485.31;2081267;28;20060;-77
2022/10/05 05:20:17;;;;;;;15.68;5.32;;;;;;;3.48;100.00;93484.88;2072402;28;20044;-76
2022/10/05 05:21:42;;;;;;;14.85;5.28;;;;;;;3.38;100.00;93491.56;2085296;28;20030;-79
2022/10/05 05:23:00;;;;;;;14.60;5.35;;;;;;;3.41;100.00;93488.19;2089596;28;20029;-78
2022/10/05 05:24:19;;;;;;;58.22;5.70;;;;;;;3.59;100.00;93492.91;2090671;28;20029;-76
2022/10/05 05:25:51;;;;;;;10.73;5.03;;;;;;;3.55;100.00;93490.22;2079741;28;20029;-77
2022/10/05 05:26:58;;;;;;;8.90;5.18;;;;;;;3.50;100.00;93496.59;2085870;28;20159;-77
2022/10/05 05:28:21;;;;;;;16.55;6.05;;;;;;;3.53;100.00;93498.53;2086941;28;20031;-79
2022/10/05 05:30:00;;;;;;;7.13;4.97;;;;;;;3.53;100.00;93498.53;2089974;28;20082;-77
2022/10/05 05:31:04;;;;;;;19.50;5.20;;;;;;;3.45;100.00;93496.91;2067887;28;20520;-76
2022/10/05 05:32:26;;;;;;;13.25;5.35;;;;;;;3.68;100.00;93506.59;2087260;28;20037;-76
2022/10/05 05:33:53;;;;;;;32.78;5.03;;;;;;;3.59;100.00;93500.84;2090476;28;20115;-78
2022/10/05 05:35:06;;;;;;;37.70;5.15;;;;;;;3.54;100.00;93497.41;2084316;28;20063;-76
2022/10/05 05:36:36;;;;;;;20.38;5.45;;;;;;;3.52;100.00;93501.53;2085494;28;20512;-79
2022/10/05 05:37:55;;;;;;;;;;;;;;;3.53;100.00;93503.81;2080772;28;20764;-78
2022/10/05 05:39:12;;;;;;;25.92;5.07;;;;;;;3.58;100.00;93501.97;2084021;28;20486;-78
2022/10/05 05:40:29;;;;;;;11.63;5.32;;;;;;;3.61;100.00;93507.28;2088245;28;20040;-78
2022/10/05 05:41:50;;;;;;;11.20;5.28;;;;;;;3.65;100.00;93507.34;2090074;28;20029;-78
2022/10/05 05:43:02;;;;;;;8.05;5.85;;;;;;;3.61;100.00;93509.19;2089826;28;20723;-78
2022/10/05 05:44:28;;;;;;;7.05;5.88;;;;;;;3.56;100.00;93514.78;2087892;28;20039;-78
2022/10/05 05:45:49;;;;;;;10.27;5.78;;;;;;;3.60;100.00;93507.63;2086021;28;20833;-78
2022/10/05 05:47:17;;;;;;;6.88;5.53;;;;;;;3.60;100.00;93513.72;2075955;28;20462;-78
2022/10/05 05:48:28;;;;;;;8.05;6.07;;;;;;;3.63;100.00;93512.22;2083582;28;20039;-79
2022/10/05 05:49:54;;;;;;;7.47;5.65;;;;;;;3.74;100.00;93519.16;2078205;28;20033;-76
2022/10/05 05:51:21;;;;;;;7.38;5.93;;;;;;;3.76;100.00;93514.25;2080547;28;20021;-78
2022/10/05 05:52:40;;;;;;;12.20;6.60;;;;;;;3.77;100.00;93517.66;2079269;28;20049;-77
2022/10/05 05:53:48;;;;;;;9.25;6.68;;;;;;;3.77;100.00;93513.13;2098437;28;20085;-76
2022/10/05 05:54:57;;;;;;;10.18;6.40;;;;;;;3.78;100.00;93519.94;2089987;28;20390;-77
2022/10/05 05:56:07;;;;;;;32.58;7.22;;;;;;;3.92;100.00;93514.03;2090553;28;20116;-76